sensor_id;sensor_type;location;lat;lon;timestamp;P1;durP1;ratioP1;P2;durP2;ratioP2
43048;SDS011;28673;44.412;11.918;2023-06-10T00:01:45;12.38;;;6.63;;
43048;SDS011;28673;44.412;11.918;2023-06-10T00:04:14;17.15;;;7.82;;
43048;SDS011;28673;44.412;11.918;2023-06-10T00:06:45;15.45;;;7.93;;
43048;SDS011;28673;44.412;11.918;2023-06-10T00:09:13;20.48;;;9.60;;
43048;SDS011;28673;44.412;11.918;2023-06-10T00:11:39;16.08;;;10.20;;
43048;SDS011;28673;44.412;11.918;2023-06-10T00:14:06;21.08;;;13.07;;
43048;SDS011;28673;44.412;11.918;2023-06-10T00:16:32;26.38;;;13.52;;
43048;SDS011;28673;44.412;11.918;2023-06-10T00:18:59;18.90;;;13.45;;
43048;SDS011;28673;44.412;11.918;2023-06-10T00:21:29;21.55;;;13.88;;
43048;SDS011;28673;44.412;11.918;2023-06-10T00:24:05;25.70;;;16.17;;
43048;SDS011;28673;44.412;11.918;2023-06-10T00:26:37;25.80;;;15.68;;
43048;SDS011;28673;44.412;11.918;2023-06-10T00:29:04;28.42;;;16.75;;
43048;SDS011;28673;44.412;11.918;2023-06-10T00:31:31;30.15;;;17.70;;
43048;SDS011;28673;44.412;11.918;2023-06-10T00:33:57;24.77;;;17.25;;
43048;SDS011;28673;44.412;11.918;2023-06-10T00:36:24;21.58;;;13.95;;
43048;SDS011;28673;44.412;11.918;2023-06-10T00:38:50;25.42;;;14.00;;
43048;SDS011;28673;44.412;11.918;2023-06-10T00:41:16;20.27;;;12.65;;
43048;SDS011;28673;44.412;11.918;2023-06-10T00:43:43;24.02;;;12.93;;
43048;SDS011;28673;44.412;11.918;2023-06-10T00:46:09;21.88;;;12.18;;
43048;SDS011;28673;44.412;11.918;2023-06-10T00:48:37;20.50;;;11.50;;
43048;SDS011;28673;44.412;11.918;2023-06-10T00:51:03;19.67;;;11.15;;
43048;SDS011;28673;44.412;11.918;2023-06-10T00:53:31;16.88;;;11.00;;
43048;SDS011;28673;44.412;11.918;2023-06-10T00:55:58;16.55;;;10.60;;
43048;SDS011;28673;44.412;11.918;2023-06-10T00:58:24;20.08;;;11.15;;
43048;SDS011;28673;44.412;11.918;2023-06-10T01:00:51;27.23;;;12.07;;
43048;SDS011;28673;44.412;11.918;2023-06-10T01:03:17;18.00;;;10.98;;
43048;SDS011;28673;44.412;11.918;2023-06-10T01:05:43;19.98;;;11.60;;
43048;SDS011;28673;44.412;11.918;2023-06-10T01:11:49;18.95;;;11.73;;
43048;SDS011;28673;44.412;11.918;2023-06-10T01:14:23;18.65;;;11.52;;
43048;SDS011;28673;44.412;11.918;2023-06-10T01:16:50;18.60;;;11.73;;
43048;SDS011;28673;44.412;11.918;2023-06-10T01:19:18;19.88;;;11.95;;
43048;SDS011;28673;44.412;11.918;2023-06-10T01:21:44;21.42;;;13.07;;
43048;SDS011;28673;44.412;11.918;2023-06-10T01:24:14;17.40;;;11.90;;
43048;SDS011;28673;44.412;11.918;2023-06-10T01:26:43;18.15;;;11.70;;
43048;SDS011;28673;44.412;11.918;2023-06-10T01:29:18;25.25;;;13.80;;
43048;SDS011;28673;44.412;11.918;2023-06-10T01:32:01;21.60;;;13.07;;
43048;SDS011;28673;44.412;11.918;2023-06-10T01:34:33;31.17;;;14.15;;
43048;SDS011;28673;44.412;11.918;2023-06-10T01:37:02;19.77;;;13.77;;
43048;SDS011;28673;44.412;11.918;2023-06-10T01:39:29;18.15;;;13.00;;
43048;SDS011;28673;44.412;11.918;2023-06-10T01:41:57;25.00;;;13.77;;
43048;SDS011;28673;44.412;11.918;2023-06-10T01:44:23;19.05;;;13.23;;
43048;SDS011;28673;44.412;11.918;2023-06-10T01:46:49;19.15;;;12.40;;
43048;SDS011;28673;44.412;11.918;2023-06-10T01:49:15;21.40;;;13.80;;
43048;SDS011;28673;44.412;11.918;2023-06-10T01:51:42;20.95;;;13.00;;
43048;SDS011;28673;44.412;11.918;2023-06-10T01:54:08;22.35;;;12.10;;
43048;SDS011;28673;44.412;11.918;2023-06-10T01:56:34;22.58;;;13.93;;
43048;SDS011;28673;44.412;11.918;2023-06-10T01:59:00;22.20;;;14.30;;
43048;SDS011;28673;44.412;11.918;2023-06-10T02:01:26;22.83;;;14.68;;
43048;SDS011;28673;44.412;11.918;2023-06-10T02:03:52;21.95;;;14.50;;
43048;SDS011;28673;44.412;11.918;2023-06-10T02:06:18;23.80;;;14.32;;
43048;SDS011;28673;44.412;11.918;2023-06-10T02:08:44;25.48;;;13.65;;
43048;SDS011;28673;44.412;11.918;2023-06-10T02:11:10;25.85;;;15.18;;
43048;SDS011;28673;44.412;11.918;2023-06-10T02:13:37;24.48;;;15.13;;
43048;SDS011;28673;44.412;11.918;2023-06-10T02:16:03;25.58;;;16.02;;
43048;SDS011;28673;44.412;11.918;2023-06-10T02:18:30;23.73;;;15.35;;
43048;SDS011;28673;44.412;11.918;2023-06-10T02:20:57;30.35;;;17.98;;
43048;SDS011;28673;44.412;11.918;2023-06-10T02:23:25;28.83;;;17.25;;
43048;SDS011;28673;44.412;11.918;2023-06-10T02:25:50;27.65;;;16.63;;
43048;SDS011;28673;44.412;11.918;2023-06-10T02:28:17;26.10;;;16.17;;
43048;SDS011;28673;44.412;11.918;2023-06-10T02:30:44;26.25;;;18.38;;
43048;SDS011;28673;44.412;11.918;2023-06-10T02:33:11;28.35;;;16.83;;
43048;SDS011;28673;44.412;11.918;2023-06-10T02:35:39;28.98;;;16.30;;
43048;SDS011;28673;44.412;11.918;2023-06-10T02:38:05;25.77;;;16.85;;
43048;SDS011;28673;44.412;11.918;2023-06-10T02:40:33;27.33;;;17.10;;
43048;SDS011;28673;44.412;11.918;2023-06-10T02:42:58;26.20;;;17.15;;
43048;SDS011;28673;44.412;11.918;2023-06-10T02:45:25;22.00;;;14.60;;
43048;SDS011;28673;44.412;11.918;2023-06-10T02:47:51;22.55;;;15.48;;
43048;SDS011;28673;44.412;11.918;2023-06-10T02:50:17;29.92;;;15.93;;
43048;SDS011;28673;44.412;11.918;2023-06-10T02:53:10;22.65;;;14.80;;
43048;SDS011;28673;44.412;11.918;2023-06-10T02:55:39;23.30;;;16.35;;
43048;SDS011;28673;44.412;11.918;2023-06-10T02:58:10;26.13;;;16.33;;
43048;SDS011;28673;44.412;11.918;2023-06-10T03:00:35;25.45;;;15.18;;
43048;SDS011;28673;44.412;11.918;2023-06-10T03:03:02;29.35;;;17.65;;
43048;SDS011;28673;44.412;11.918;2023-06-10T03:05:36;26.30;;;16.17;;
43048;SDS011;28673;44.412;11.918;2023-06-10T03:08:03;28.17;;;17.05;;
43048;SDS011;28673;44.412;11.918;2023-06-10T03:10:32;24.20;;;15.32;;
43048;SDS011;28673;44.412;11.918;2023-06-10T03:12:59;24.63;;;15.25;;
43048;SDS011;28673;44.412;11.918;2023-06-10T03:15:25;20.33;;;13.32;;
43048;SDS011;28673;44.412;11.918;2023-06-10T03:17:52;26.90;;;15.48;;
43048;SDS011;28673;44.412;11.918;2023-06-10T03:20:18;29.42;;;14.13;;
43048;SDS011;28673;44.412;11.918;2023-06-10T03:22:45;23.15;;;14.30;;
43048;SDS011;28673;44.412;11.918;2023-06-10T03:25:11;25.38;;;15.02;;
43048;SDS011;28673;44.412;11.918;2023-06-10T03:27:42;21.83;;;13.38;;
43048;SDS011;28673;44.412;11.918;2023-06-10T03:30:08;21.95;;;13.48;;
43048;SDS011;28673;44.412;11.918;2023-06-10T03:32:37;25.15;;;12.68;;
43048;SDS011;28673;44.412;11.918;2023-06-10T03:35:05;19.63;;;13.70;;
43048;SDS011;28673;44.412;11.918;2023-06-10T03:37:32;18.10;;;13.23;;
43048;SDS011;28673;44.412;11.918;2023-06-10T03:39:58;20.13;;;12.77;;
43048;SDS011;28673;44.412;11.918;2023-06-10T03:42:25;21.60;;;11.73;;
43048;SDS011;28673;44.412;11.918;2023-06-10T03:44:51;15.85;;;11.23;;
43048;SDS011;28673;44.412;11.918;2023-06-10T03:47:17;20.42;;;12.23;;
43048;SDS011;28673;44.412;11.918;2023-06-10T03:49:43;19.20;;;12.18;;
43048;SDS011;28673;44.412;11.918;2023-06-10T03:52:10;19.42;;;11.27;;
43048;SDS011;28673;44.412;11.918;2023-06-10T03:54:36;22.05;;;12.27;;
43048;SDS011;28673;44.412;11.918;2023-06-10T03:57:02;16.30;;;11.80;;
43048;SDS011;28673;44.412;11.918;2023-06-10T03:59:29;17.25;;;11.48;;
43048;SDS011;28673;44.412;11.918;2023-06-10T04:01:55;24.95;;;12.63;;
43048;SDS011;28673;44.412;11.918;2023-06-10T04:04:21;19.48;;;12.82;;
43048;SDS011;28673;44.412;11.918;2023-06-10T04:06:48;18.67;;;11.70;;
43048;SDS011;28673;44.412;11.918;2023-06-10T04:09:14;17.77;;;11.52;;
43048;SDS011;28673;44.412;11.918;2023-06-10T04:11:41;27.48;;;13.15;;
43048;SDS011;28673;44.412;11.918;2023-06-10T04:14:08;17.92;;;10.80;;
43048;SDS011;28673;44.412;11.918;2023-06-10T04:16:34;17.33;;;11.13;;
43048;SDS011;28673;44.412;11.918;2023-06-10T04:19:01;15.45;;;10.68;;
43048;SDS011;28673;44.412;11.918;2023-06-10T04:21:27;20.38;;;12.27;;
43048;SDS011;28673;44.412;11.918;2023-06-10T04:23:53;17.17;;;10.90;;
43048;SDS011;28673;44.412;11.918;2023-06-10T04:26:20;16.83;;;10.60;;
43048;SDS011;28673;44.412;11.918;2023-06-10T04:28:47;21.95;;;12.45;;
43048;SDS011;28673;44.412;11.918;2023-06-10T04:31:13;15.80;;;9.38;;
43048;SDS011;28673;44.412;11.918;2023-06-10T04:33:40;14.25;;;9.55;;
43048;SDS011;28673;44.412;11.918;2023-06-10T04:36:06;14.85;;;10.98;;
43048;SDS011;28673;44.412;11.918;2023-06-10T04:38:32;24.67;;;11.57;;
43048;SDS011;28673;44.412;11.918;2023-06-10T04:40:59;15.75;;;9.90;;
43048;SDS011;28673;44.412;11.918;2023-06-10T04:43:27;19.75;;;12.60;;
43048;SDS011;28673;44.412;11.918;2023-06-10T04:45:55;15.93;;;10.60;;
43048;SDS011;28673;44.412;11.918;2023-06-10T04:48:21;21.00;;;12.57;;
43048;SDS011;28673;44.412;11.918;2023-06-10T04:50:49;18.00;;;10.85;;
43048;SDS011;28673;44.412;11.918;2023-06-10T04:53:16;16.75;;;9.75;;
43048;SDS011;28673;44.412;11.918;2023-06-10T04:55:45;20.42;;;11.35;;
43048;SDS011;28673;44.412;11.918;2023-06-10T04:58:11;16.70;;;9.93;;
43048;SDS011;28673;44.412;11.918;2023-06-10T05:00:37;18.48;;;10.63;;
43048;SDS011;28673;44.412;11.918;2023-06-10T05:03:03;19.08;;;10.70;;
43048;SDS011;28673;44.412;11.918;2023-06-10T05:05:29;18.65;;;10.00;;
43048;SDS011;28673;44.412;11.918;2023-06-10T05:07:55;18.23;;;10.02;;
43048;SDS011;28673;44.412;11.918;2023-06-10T05:10:21;15.10;;;10.27;;
43048;SDS011;28673;44.412;11.918;2023-06-10T05:12:46;16.20;;;11.15;;
43048;SDS011;28673;44.412;11.918;2023-06-10T05:15:12;20.10;;;11.50;;
43048;SDS011;28673;44.412;11.918;2023-06-10T05:17:38;19.75;;;11.32;;
43048;SDS011;28673;44.412;11.918;2023-06-10T05:20:04;23.23;;;10.65;;
43048;SDS011;28673;44.412;11.918;2023-06-10T05:22:31;19.60;;;11.50;;
43048;SDS011;28673;44.412;11.918;2023-06-10T05:24:57;19.85;;;11.55;;
43048;SDS011;28673;44.412;11.918;2023-06-10T05:27:23;21.70;;;11.52;;
43048;SDS011;28673;44.412;11.918;2023-06-10T05:29:49;18.08;;;9.77;;
43048;SDS011;28673;44.412;11.918;2023-06-10T05:32:16;13.32;;;9.70;;
43048;SDS011;28673;44.412;11.918;2023-06-10T05:34:43;15.45;;;9.75;;
43048;SDS011;28673;44.412;11.918;2023-06-10T05:37:09;14.98;;;9.00;;
43048;SDS011;28673;44.412;11.918;2023-06-10T05:39:35;18.67;;;11.10;;
43048;SDS011;28673;44.412;11.918;2023-06-10T05:42:06;18.20;;;11.05;;
43048;SDS011;28673;44.412;11.918;2023-06-10T05:44:32;24.60;;;12.65;;
43048;SDS011;28673;44.412;11.918;2023-06-10T05:46:59;18.58;;;10.05;;
43048;SDS011;28673;44.412;11.918;2023-06-10T05:49:24;22.52;;;11.95;;
43048;SDS011;28673;44.412;11.918;2023-06-10T05:51:50;19.42;;;10.02;;
43048;SDS011;28673;44.412;11.918;2023-06-10T05:54:18;13.25;;;9.35;;
43048;SDS011;28673;44.412;11.918;2023-06-10T05:56:44;14.43;;;9.85;;
43048;SDS011;28673;44.412;11.918;2023-06-10T05:59:10;13.70;;;8.80;;
43048;SDS011;28673;44.412;11.918;2023-06-10T06:01:36;17.70;;;9.35;;
43048;SDS011;28673;44.412;11.918;2023-06-10T06:04:02;12.52;;;8.93;;
43048;SDS011;28673;44.412;11.918;2023-06-10T06:06:27;12.77;;;8.35;;
43048;SDS011;28673;44.412;11.918;2023-06-10T06:08:53;13.60;;;8.60;;
43048;SDS011;28673;44.412;11.918;2023-06-10T06:11:19;16.40;;;8.38;;
43048;SDS011;28673;44.412;11.918;2023-06-10T06:13:45;13.88;;;7.70;;
43048;SDS011;28673;44.412;11.918;2023-06-10T06:16:13;13.35;;;8.15;;
43048;SDS011;28673;44.412;11.918;2023-06-10T06:18:39;11.02;;;8.02;;
43048;SDS011;28673;44.412;11.918;2023-06-10T06:21:05;14.75;;;8.80;;
43048;SDS011;28673;44.412;11.918;2023-06-10T06:23:31;15.02;;;9.73;;
43048;SDS011;28673;44.412;11.918;2023-06-10T06:25:56;14.95;;;8.73;;
43048;SDS011;28673;44.412;11.918;2023-06-10T06:28:22;10.48;;;7.35;;
43048;SDS011;28673;44.412;11.918;2023-06-10T06:30:54;14.32;;;7.60;;
43048;SDS011;28673;44.412;11.918;2023-06-10T06:33:23;9.95;;;6.97;;
43048;SDS011;28673;44.412;11.918;2023-06-10T06:35:49;11.07;;;7.68;;
43048;SDS011;28673;44.412;11.918;2023-06-10T06:38:14;8.63;;;5.30;;
43048;SDS011;28673;44.412;11.918;2023-06-10T06:40:41;7.22;;;5.38;;
43048;SDS011;28673;44.412;11.918;2023-06-10T06:43:07;8.85;;;5.00;;
43048;SDS011;28673;44.412;11.918;2023-06-10T06:45:51;8.13;;;5.57;;
43048;SDS011;28673;44.412;11.918;2023-06-10T06:48:17;6.78;;;5.00;;
43048;SDS011;28673;44.412;11.918;2023-06-10T06:50:43;9.00;;;5.45;;
43048;SDS011;28673;44.412;11.918;2023-06-10T06:53:09;11.43;;;5.53;;
43048;SDS011;28673;44.412;11.918;2023-06-10T06:55:35;8.95;;;5.15;;
43048;SDS011;28673;44.412;11.918;2023-06-10T06:58:00;8.10;;;5.60;;
43048;SDS011;28673;44.412;11.918;2023-06-10T07:00:29;6.97;;;4.43;;
43048;SDS011;28673;44.412;11.918;2023-06-10T07:02:55;7.82;;;4.95;;
43048;SDS011;28673;44.412;11.918;2023-06-10T07:05:22;16.90;;;5.97;;
43048;SDS011;28673;44.412;11.918;2023-06-10T07:07:50;10.80;;;5.65;;
43048;SDS011;28673;44.412;11.918;2023-06-10T07:10:22;6.45;;;4.40;;
43048;SDS011;28673;44.412;11.918;2023-06-10T07:12:50;8.67;;;5.47;;
43048;SDS011;28673;44.412;11.918;2023-06-10T07:15:16;11.18;;;5.05;;
43048;SDS011;28673;44.412;11.918;2023-06-10T07:17:43;12.60;;;6.07;;
43048;SDS011;28673;44.412;11.918;2023-06-10T07:20:10;9.90;;;4.47;;
43048;SDS011;28673;44.412;11.918;2023-06-10T07:22:36;7.80;;;5.18;;
43048;SDS011;28673;44.412;11.918;2023-06-10T07:25:04;6.03;;;4.18;;
43048;SDS011;28673;44.412;11.918;2023-06-10T07:27:30;12.45;;;5.13;;
43048;SDS011;28673;44.412;11.918;2023-06-10T07:29:56;5.93;;;4.25;;
43048;SDS011;28673;44.412;11.918;2023-06-10T07:32:22;8.13;;;4.97;;
43048;SDS011;28673;44.412;11.918;2023-06-10T07:34:49;5.82;;;4.72;;
43048;SDS011;28673;44.412;11.918;2023-06-10T07:37:15;6.50;;;5.20;;
43048;SDS011;28673;44.412;11.918;2023-06-10T07:39:41;9.35;;;5.32;;
43048;SDS011;28673;44.412;11.918;2023-06-10T07:42:08;10.13;;;5.63;;
43048;SDS011;28673;44.412;11.918;2023-06-10T07:44:38;7.68;;;5.35;;
43048;SDS011;28673;44.412;11.918;2023-06-10T07:47:04;14.95;;;5.93;;
43048;SDS011;28673;44.412;11.918;2023-06-10T07:49:30;9.05;;;6.38;;
43048;SDS011;28673;44.412;11.918;2023-06-10T07:51:56;11.68;;;6.20;;
43048;SDS011;28673;44.412;11.918;2023-06-10T07:54:22;9.95;;;5.50;;
43048;SDS011;28673;44.412;11.918;2023-06-10T07:56:48;13.27;;;6.28;;
43048;SDS011;28673;44.412;11.918;2023-06-10T07:59:15;8.40;;;5.20;;
43048;SDS011;28673;44.412;11.918;2023-06-10T08:01:41;8.93;;;5.63;;
43048;SDS011;28673;44.412;11.918;2023-06-10T08:04:08;5.53;;;4.05;;
43048;SDS011;28673;44.412;11.918;2023-06-10T08:06:34;4.63;;;3.35;;
43048;SDS011;28673;44.412;11.918;2023-06-10T08:09:02;8.30;;;4.20;;
43048;SDS011;28673;44.412;11.918;2023-06-10T08:11:28;6.95;;;3.28;;
43048;SDS011;28673;44.412;11.918;2023-06-10T08:13:55;5.88;;;3.42;;
43048;SDS011;28673;44.412;11.918;2023-06-10T08:16:21;6.22;;;3.45;;
43048;SDS011;28673;44.412;11.918;2023-06-10T08:18:46;11.52;;;5.03;;
43048;SDS011;28673;44.412;11.918;2023-06-10T08:21:12;6.00;;;4.65;;
43048;SDS011;28673;44.412;11.918;2023-06-10T08:23:38;10.02;;;4.45;;
43048;SDS011;28673;44.412;11.918;2023-06-10T08:26:04;5.90;;;4.53;;
43048;SDS011;28673;44.412;11.918;2023-06-10T08:28:31;8.57;;;4.90;;
43048;SDS011;28673;44.412;11.918;2023-06-10T08:30:57;6.40;;;4.60;;
43048;SDS011;28673;44.412;11.918;2023-06-10T08:33:24;11.32;;;5.75;;
43048;SDS011;28673;44.412;11.918;2023-06-10T08:35:49;9.77;;;5.30;;
43048;SDS011;28673;44.412;11.918;2023-06-10T08:38:15;8.45;;;5.50;;
43048;SDS011;28673;44.412;11.918;2023-06-10T08:40:41;11.88;;;6.53;;
43048;SDS011;28673;44.412;11.918;2023-06-10T08:43:08;9.40;;;6.65;;
43048;SDS011;28673;44.412;11.918;2023-06-10T08:45:42;12.38;;;6.80;;
43048;SDS011;28673;44.412;11.918;2023-06-10T08:48:10;11.27;;;6.55;;
43048;SDS011;28673;44.412;11.918;2023-06-10T08:50:38;10.70;;;6.70;;
43048;SDS011;28673;44.412;11.918;2023-06-10T08:53:06;10.95;;;6.50;;
43048;SDS011;28673;44.412;11.918;2023-06-10T08:55:34;10.95;;;7.00;;
43048;SDS011;28673;44.412;11.918;2023-06-10T08:58:03;9.80;;;6.38;;
43048;SDS011;28673;44.412;11.918;2023-06-10T09:00:30;14.63;;;7.78;;
43048;SDS011;28673;44.412;11.918;2023-06-10T09:02:57;13.25;;;8.20;;
43048;SDS011;28673;44.412;11.918;2023-06-10T09:05:23;12.50;;;6.88;;
43048;SDS011;28673;44.412;11.918;2023-06-10T09:07:50;11.27;;;6.97;;
43048;SDS011;28673;44.412;11.918;2023-06-10T09:10:17;9.15;;;7.32;;
43048;SDS011;28673;44.412;11.918;2023-06-10T09:12:43;11.63;;;6.43;;
43048;SDS011;28673;44.412;11.918;2023-06-10T09:15:09;10.80;;;7.13;;
43048;SDS011;28673;44.412;11.918;2023-06-10T09:17:37;8.27;;;6.00;;
43048;SDS011;28673;44.412;11.918;2023-06-10T09:20:06;8.75;;;6.90;;
43048;SDS011;28673;44.412;11.918;2023-06-10T09:22:34;12.32;;;6.22;;
43048;SDS011;28673;44.412;11.918;2023-06-10T09:25:04;11.27;;;5.73;;
43048;SDS011;28673;44.412;11.918;2023-06-10T09:27:46;8.73;;;5.43;;
43048;SDS011;28673;44.412;11.918;2023-06-10T09:30:31;11.48;;;6.00;;
43048;SDS011;28673;44.412;11.918;2023-06-10T09:32:59;9.45;;;5.10;;
43048;SDS011;28673;44.412;11.918;2023-06-10T09:35:35;10.45;;;4.82;;
43048;SDS011;28673;44.412;11.918;2023-06-10T09:38:00;8.07;;;5.32;;
43048;SDS011;28673;44.412;11.918;2023-06-10T09:40:27;10.13;;;5.60;;
43048;SDS011;28673;44.412;11.918;2023-06-10T09:42:55;9.10;;;5.47;;
43048;SDS011;28673;44.412;11.918;2023-06-10T09:45:31;8.15;;;6.05;;
43048;SDS011;28673;44.412;11.918;2023-06-10T09:47:58;8.25;;;5.78;;
43048;SDS011;28673;44.412;11.918;2023-06-10T09:50:24;10.27;;;5.72;;
43048;SDS011;28673;44.412;11.918;2023-06-10T09:52:50;7.90;;;6.32;;
43048;SDS011;28673;44.412;11.918;2023-06-10T09:55:17;7.47;;;5.88;;
43048;SDS011;28673;44.412;11.918;2023-06-10T09:57:43;9.93;;;5.70;;
43048;SDS011;28673;44.412;11.918;2023-06-10T10:00:21;16.48;;;14.20;;
43048;SDS011;28673;44.412;11.918;2023-06-10T10:02:49;11.77;;;9.82;;
43048;SDS011;28673;44.412;11.918;2023-06-10T10:05:16;14.43;;;9.65;;
43048;SDS011;28673;44.412;11.918;2023-06-10T10:10:18;23.20;;;20.58;;
43048;SDS011;28673;44.412;11.918;2023-06-10T10:12:46;16.50;;;14.57;;
43048;SDS011;28673;44.412;11.918;2023-06-10T10:15:12;17.20;;;11.85;;
43048;SDS011;28673;44.412;11.918;2023-06-10T10:18:13;18.88;;;15.30;;
43048;SDS011;28673;44.412;11.918;2023-06-10T10:20:37;9.25;;;8.35;;
43048;SDS011;28673;44.412;11.918;2023-06-10T10:23:09;10.65;;;6.65;;
43048;SDS011;28673;44.412;11.918;2023-06-10T10:25:40;8.20;;;4.78;;
43048;SDS011;28673;44.412;11.918;2023-06-10T10:28:08;14.65;;;12.77;;
43048;SDS011;28673;44.412;11.918;2023-06-10T10:30:42;12.35;;;10.30;;
43048;SDS011;28673;44.412;11.918;2023-06-10T10:36:26;6.13;;;4.70;;
43048;SDS011;28673;44.412;11.918;2023-06-10T10:38:53;6.28;;;5.10;;
43048;SDS011;28673;44.412;11.918;2023-06-10T10:41:20;9.88;;;8.88;;
43048;SDS011;28673;44.412;11.918;2023-06-10T10:43:47;9.13;;;5.88;;
43048;SDS011;28673;44.412;11.918;2023-06-10T10:46:16;9.80;;;3.97;;
43048;SDS011;28673;44.412;11.918;2023-06-10T10:48:42;7.80;;;5.65;;
43048;SDS011;28673;44.412;11.918;2023-06-10T10:51:09;5.10;;;3.75;;
43048;SDS011;28673;44.412;11.918;2023-06-10T10:53:39;3.38;;;3.08;;
43048;SDS011;28673;44.412;11.918;2023-06-10T10:56:12;3.42;;;3.13;;
43048;SDS011;28673;44.412;11.918;2023-06-10T10:59:01;5.85;;;3.58;;
43048;SDS011;28673;44.412;11.918;2023-06-10T11:01:40;4.95;;;4.13;;
43048;SDS011;28673;44.412;11.918;2023-06-10T11:04:07;5.05;;;3.28;;
43048;SDS011;28673;44.412;11.918;2023-06-10T11:06:36;9.93;;;5.72;;
43048;SDS011;28673;44.412;11.918;2023-06-10T11:09:24;10.43;;;5.78;;
43048;SDS011;28673;44.412;11.918;2023-06-10T11:11:56;5.20;;;2.90;;
43048;SDS011;28673;44.412;11.918;2023-06-10T11:14:30;3.70;;;2.90;;
43048;SDS011;28673;44.412;11.918;2023-06-10T11:16:58;4.45;;;3.42;;
43048;SDS011;28673;44.412;11.918;2023-06-10T11:19:58;8.63;;;6.20;;
43048;SDS011;28673;44.412;11.918;2023-06-10T11:22:17;9.75;;;3.80;;
43048;SDS011;28673;44.412;11.918;2023-06-10T11:24:50;6.53;;;3.20;;
43048;SDS011;28673;44.412;11.918;2023-06-10T11:29:54;4.03;;;3.30;;
43048;SDS011;28673;44.412;11.918;2023-06-10T11:32:25;4.57;;;3.00;;
43048;SDS011;28673;44.412;11.918;2023-06-10T11:34:56;4.07;;;2.40;;
43048;SDS011;28673;44.412;11.918;2023-06-10T11:37:23;9.43;;;8.43;;
43048;SDS011;28673;44.412;11.918;2023-06-10T11:39:55;3.90;;;2.70;;
43048;SDS011;28673;44.412;11.918;2023-06-10T11:42:21;4.05;;;2.25;;
43048;SDS011;28673;44.412;11.918;2023-06-10T11:44:51;9.47;;;2.47;;
43048;SDS011;28673;44.412;11.918;2023-06-10T11:47:19;8.77;;;2.40;;
43048;SDS011;28673;44.412;11.918;2023-06-10T11:49:46;2.63;;;1.98;;
43048;SDS011;28673;44.412;11.918;2023-06-10T11:52:29;4.35;;;2.42;;
43048;SDS011;28673;44.412;11.918;2023-06-10T11:55:03;4.15;;;1.85;;
43048;SDS011;28673;44.412;11.918;2023-06-10T11:57:33;4.63;;;2.65;;
43048;SDS011;28673;44.412;11.918;2023-06-10T12:00:04;5.18;;;2.20;;
43048;SDS011;28673;44.412;11.918;2023-06-10T12:02:36;4.03;;;2.25;;
43048;SDS011;28673;44.412;11.918;2023-06-10T12:05:12;4.32;;;2.50;;
43048;SDS011;28673;44.412;11.918;2023-06-10T12:07:38;2.67;;;2.00;;
43048;SDS011;28673;44.412;11.918;2023-06-10T12:10:04;5.65;;;3.22;;
43048;SDS011;28673;44.412;11.918;2023-06-10T12:12:30;4.50;;;3.30;;
43048;SDS011;28673;44.412;11.918;2023-06-10T12:14:57;4.47;;;2.97;;
43048;SDS011;28673;44.412;11.918;2023-06-10T12:17:35;5.38;;;3.25;;
43048;SDS011;28673;44.412;11.918;2023-06-10T12:20:04;4.97;;;3.42;;
43048;SDS011;28673;44.412;11.918;2023-06-10T12:22:42;4.32;;;3.35;;
43048;SDS011;28673;44.412;11.918;2023-06-10T12:25:09;6.22;;;3.78;;
43048;SDS011;28673;44.412;11.918;2023-06-10T12:27:35;5.40;;;3.13;;
43048;SDS011;28673;44.412;11.918;2023-06-10T12:30:04;4.60;;;3.33;;
43048;SDS011;28673;44.412;11.918;2023-06-10T12:32:43;7.38;;;3.20;;
43048;SDS011;28673;44.412;11.918;2023-06-10T12:35:11;6.20;;;3.28;;
43048;SDS011;28673;44.412;11.918;2023-06-10T12:37:39;3.65;;;2.53;;
43048;SDS011;28673;44.412;11.918;2023-06-10T12:40:05;3.55;;;2.63;;
43048;SDS011;28673;44.412;11.918;2023-06-10T12:42:35;5.32;;;2.50;;
43048;SDS011;28673;44.412;11.918;2023-06-10T12:45:02;6.82;;;2.70;;
43048;SDS011;28673;44.412;11.918;2023-06-10T12:47:30;4.18;;;3.28;;
43048;SDS011;28673;44.412;11.918;2023-06-10T12:49:58;7.15;;;2.60;;
43048;SDS011;28673;44.412;11.918;2023-06-10T12:52:25;7.57;;;2.72;;
43048;SDS011;28673;44.412;11.918;2023-06-10T12:54:51;3.33;;;2.90;;
43048;SDS011;28673;44.412;11.918;2023-06-10T12:57:17;4.78;;;2.80;;
43048;SDS011;28673;44.412;11.918;2023-06-10T12:59:43;3.95;;;2.72;;
43048;SDS011;28673;44.412;11.918;2023-06-10T13:02:15;4.53;;;2.50;;
43048;SDS011;28673;44.412;11.918;2023-06-10T13:04:45;4.70;;;2.75;;
43048;SDS011;28673;44.412;11.918;2023-06-10T13:07:15;5.13;;;2.85;;
43048;SDS011;28673;44.412;11.918;2023-06-10T13:09:41;4.15;;;2.78;;
43048;SDS011;28673;44.412;11.918;2023-06-10T13:12:08;4.65;;;2.65;;
43048;SDS011;28673;44.412;11.918;2023-06-10T13:14:41;3.05;;;2.35;;
43048;SDS011;28673;44.412;11.918;2023-06-10T13:17:06;4.47;;;2.80;;
43048;SDS011;28673;44.412;11.918;2023-06-10T13:19:33;2.40;;;2.20;;
43048;SDS011;28673;44.412;11.918;2023-06-10T13:21:59;3.38;;;2.53;;
43048;SDS011;28673;44.412;11.918;2023-06-10T13:24:25;3.08;;;2.63;;
43048;SDS011;28673;44.412;11.918;2023-06-10T13:26:51;3.10;;;2.22;;
43048;SDS011;28673;44.412;11.918;2023-06-10T13:29:17;5.97;;;2.60;;
43048;SDS011;28673;44.412;11.918;2023-06-10T13:31:44;3.53;;;1.85;;
43048;SDS011;28673;44.412;11.918;2023-06-10T13:34:11;5.93;;;2.50;;
43048;SDS011;28673;44.412;11.918;2023-06-10T13:36:37;5.88;;;2.30;;
43048;SDS011;28673;44.412;11.918;2023-06-10T13:39:03;4.60;;;2.60;;
43048;SDS011;28673;44.412;11.918;2023-06-10T13:41:29;4.63;;;2.63;;
43048;SDS011;28673;44.412;11.918;2023-06-10T13:43:57;3.40;;;2.47;;
43048;SDS011;28673;44.412;11.918;2023-06-10T13:46:24;5.40;;;2.00;;
43048;SDS011;28673;44.412;11.918;2023-06-10T13:48:51;3.15;;;2.47;;
43048;SDS011;28673;44.412;11.918;2023-06-10T13:51:17;4.75;;;2.33;;
43048;SDS011;28673;44.412;11.918;2023-06-10T13:53:44;5.55;;;2.47;;
43048;SDS011;28673;44.412;11.918;2023-06-10T13:56:11;3.10;;;2.67;;
43048;SDS011;28673;44.412;11.918;2023-06-10T13:58:37;3.28;;;2.50;;
43048;SDS011;28673;44.412;11.918;2023-06-10T14:01:05;5.70;;;2.35;;
43048;SDS011;28673;44.412;11.918;2023-06-10T14:03:31;4.18;;;2.55;;
43048;SDS011;28673;44.412;11.918;2023-06-10T14:05:57;4.05;;;2.33;;
43048;SDS011;28673;44.412;11.918;2023-06-10T14:08:23;3.55;;;2.67;;
43048;SDS011;28673;44.412;11.918;2023-06-10T14:10:49;3.90;;;2.53;;
43048;SDS011;28673;44.412;11.918;2023-06-10T14:13:16;3.53;;;2.33;;
43048;SDS011;28673;44.412;11.918;2023-06-10T14:15:42;4.10;;;2.70;;
43048;SDS011;28673;44.412;11.918;2023-06-10T14:18:09;5.10;;;2.40;;
43048;SDS011;28673;44.412;11.918;2023-06-10T14:20:34;4.45;;;3.00;;
43048;SDS011;28673;44.412;11.918;2023-06-10T14:23:00;6.60;;;2.50;;
43048;SDS011;28673;44.412;11.918;2023-06-10T14:25:26;6.88;;;3.38;;
43048;SDS011;28673;44.412;11.918;2023-06-10T14:27:52;5.00;;;2.85;;
43048;SDS011;28673;44.412;11.918;2023-06-10T14:30:18;3.90;;;2.55;;
43048;SDS011;28673;44.412;11.918;2023-06-10T14:32:44;4.50;;;2.72;;
43048;SDS011;28673;44.412;11.918;2023-06-10T14:35:10;7.07;;;2.80;;
43048;SDS011;28673;44.412;11.918;2023-06-10T14:37:36;4.10;;;2.20;;